Time;durP1;ratioP1;P1;durP2;ratioP2;P2;SDS_P1;SDS_P2;PMS_P1;PMS_P2;Temp;Humidity;BMP_temperature;BMP_pressure;BME280_temperature;BME280_humidity;BME280_pressure;Samples;Min_cycle;Max_cycle;Signal;HPM_P1;HPM_P2
2022/08/18 00:02:04;;;;;;;5.05;2.50;;;;;;;22.02;50.17;98759.78;4476506;31;34303;-80
2022/08/18 00:04:37;;;;;;;5.97;3.35;;;;;;;21.99;50.27;98760.84;4492486;31;34754;-80
2022/08/18 00:07:20;;;;;;;6.03;3.10;;;;;;;22.12;50.14;98755.56;4495152;31;35060;-81
2022/08/18 00:09:49;;;;;;;5.12;2.75;;;;;;;22.21;49.37;98754.91;4484017;32;34688;-80
2022/08/18 00:12:24;;;;;;;4.80;2.72;;;;;;;22.10;49.94;98754.81;4489661;31;33390;-81
2022/08/18 00:14:53;;;;;;;6.23;3.23;;;;;;;22.18;49.57;98751.63;4485093;32;34035;-80
2022/08/18 00:17:22;;;;;;;5.07;2.87;;;;;;;22.19;50.06;98751.53;4496070;31;35052;-81
2022/08/18 00:19:50;;;;;;;4.75;3.12;;;;;;;22.02;50.60;98755.31;4501113;31;33687;-81
2022/08/18 00:22:20;;;;;;;4.55;3.05;;;;;;;21.77;51.00;98749.00;4500285;31;34389;-81
2022/08/18 00:24:50;;;;;;;5.60;2.75;;;;;;;22.24;50.18;98751.22;4499083;31;33877;-81
2022/08/18 00:27:21;;;;;;;4.55;2.80;;;;;;;22.69;49.18;98749.00;4497146;31;35911;-81
2022/08/18 00:29:58;;;;;;;5.37;3.10;;;;;;;22.63;48.83;98747.62;4500904;31;34321;-81
2022/08/18 00:32:33;;;;;;;6.03;3.53;;;;;;;22.22;50.31;98750.44;4483241;32;33399;-81
2022/08/18 00:35:14;;;;;;;3.62;2.65;;;;;;;22.05;50.65;98749.81;4484291;32;33898;-81
2022/08/18 00:37:42;;;;;;;5.05;3.03;;;;;;;22.13;50.66;98736.00;4497846;31;35776;-81
2022/08/18 00:40:15;;;;;;;4.90;3.30;;;;;;;21.96;51.29;98750.44;4498466;31;34574;-81
2022/08/18 00:42:47;;;;;;;5.62;3.50;;;;;;;21.71;52.35;98744.13;4500209;31;34523;-81
2022/08/18 00:45:24;;;;;;;5.57;3.70;;;;;;;21.82;52.21;98753.16;4499668;31;34002;-81
2022/08/18 00:47:53;;;;;;;6.87;3.78;;;;;;;21.92;52.35;98752.44;4498214;31;35048;-81
2022/08/18 00:50:45;;;;;;;6.82;3.60;;;;;;;21.82;53.31;98747.88;4500676;31;34653;-81
2022/08/18 00:53:23;;;;;;;5.97;4.07;;;;;;;21.68;53.63;98754.06;4485773;31;33336;-81
2022/08/18 00:55:52;;;;;;;6.80;4.15;;;;;;;21.23;55.56;98756.06;4491543;31;33823;-81
2022/08/18 00:58:31;;;;;;;7.18;4.35;;;;;;;21.21;57.70;98756.16;4484945;32;34337;-81
2022/08/18 01:01:04;;;;;;;9.13;4.43;;;;;;;21.17;57.27;98760.81;4484738;31;34486;-81
2022/08/18 01:03:35;;;;;;;7.53;3.85;;;;;;;21.47;56.77;98762.47;4500677;31;33869;-81
2022/08/18 01:06:07;;;;;;;6.62;4.22;;;;;;;21.55;57.12;98759.34;4499328;31;33061;-81
2022/08/18 01:08:35;;;;;;;7.80;4.80;;;;;;;21.53;57.99;98763.84;4487837;31;35068;-81
2022/08/18 01:11:03;;;;;;;8.30;4.50;;;;;;;21.60;58.62;98765.19;4491514;31;35202;-81
2022/08/18 01:13:34;;;;;;;8.27;4.97;;;;;;;21.93;58.16;98766.53;4500390;31;34193;-81
2022/08/18 01:21:49;;;;;;;8.65;5.20;;;;;;;21.67;59.80;98771.78;4499494;31;34062;-81
2022/08/18 01:21:50;;;;;;;8.48;5.70;;;;;;;22.28;59.19;98766.84;4498971;31;34522;-81
2022/08/18 01:25:58;;;;;;;10.15;6.62;;;;;;;22.30;60.44;98772.88;4489745;31;33430;-81
2022/08/18 01:27:16;;;;;;;11.48;6.37;;;;;;;22.26;61.27;98778.47;4474020;31;32295;-81
2022/08/18 01:29:46;;;;;;;8.70;5.68;;;;;;;22.84;58.40;98777.12;4498529;31;34966;-81
2022/08/18 01:32:20;;;;;;;13.23;6.78;;;;;;;23.08;58.08;98776.38;4486731;32;33834;-81
2022/08/18 01:34:49;;;;;;;11.63;7.40;;;;;;;22.97;58.42;98773.63;4472638;32;33701;-81
2022/08/18 01:37:19;;;;;;;11.43;6.80;;;;;;;22.87;60.16;98773.41;4491979;31;33932;-82
2022/08/18 01:39:47;;;;;;;11.93;6.68;;;;;;;22.85;60.94;98773.53;4501920;31;34926;-81
2022/08/18 01:42:36;;;;;;;11.63;6.45;;;;;;;23.16;59.94;98776.69;4496348;31;34670;-82
2022/08/18 01:45:06;;;;;;;10.45;6.57;;;;;;;23.31;59.77;98776.53;4501290;31;33751;-82
2022/08/18 01:47:36;;;;;;;10.55;6.93;;;;;;;22.99;61.21;98777.84;4501609;31;33146;-82
2022/08/18 01:50:16;;;;;;;10.18;6.18;;;;;;;23.14;60.77;98783.06;4502550;31;36058;-82
2022/08/18 01:52:44;;;;;;;11.50;6.68;;;;;;;23.17;60.62;98778.41;4501433;31;35172;-81
2022/08/18 01:55:12;;;;;;;10.57;6.60;;;;;;;23.33;60.12;98780.78;4501642;31;33448;-82
2022/08/18 01:57:43;;;;;;;10.40;6.25;;;;;;;23.37;59.96;98781.41;4501482;31;34862;-82
2022/08/18 02:00:14;;;;;;;11.68;6.65;;;;;;;23.75;58.63;98785.72;4500252;31;36020;-81
2022/08/18 02:02:43;;;;;;;9.32;6.37;;;;;;;23.67;57.73;98779.16;4501374;31;35102;-82
2022/08/18 02:05:17;;;;;;;8.90;6.35;;;;;;;23.62;58.34;98781.31;4502694;31;33418;-82
2022/08/18 02:07:45;;;;;;;11.35;6.18;;;;;;;23.30;59.58;98780.16;4499869;31;33693;-82
2022/08/18 02:10:13;;;;;;;11.88;6.87;;;;;;;23.48;59.24;98769.03;4501076;31;35035;-82
2022/08/18 02:12:43;;;;;;;12.98;7.00;;;;;;;23.85;58.43;98776.13;4501695;31;35044;-82
2022/08/18 02:15:11;;;;;;;12.65;7.25;;;;;;;23.65;58.75;98781.09;4493437;31;33463;-82
2022/08/18 02:17:44;;;;;;;8.60;5.95;;;;;;;23.49;59.43;98780.53;4501380;31;33897;-82
2022/08/18 02:20:16;;;;;;;9.00;6.28;;;;;;;23.42;59.16;98780.13;4502213;31;35233;-82
2022/08/18 02:22:45;;;;;;;9.50;6.45;;;;;;;23.68;58.76;98780.00;4500046;31;35292;-82
2022/08/18 02:25:13;;;;;;;8.75;6.12;;;;;;;23.43;59.41;98776.47;4501376;31;33635;-82
2022/08/18 02:27:42;;;;;;;12.48;6.07;;;;;;;23.43;59.38;98783.63;4501283;31;34059;-82
2022/08/18 02:30:14;;;;;;;9.02;6.00;;;;;;;23.46;59.68;98786.06;4501377;31;36038;-82
2022/08/18 02:32:42;;;;;;;9.45;6.45;;;;;;;24.08;57.38;98784.19;4498541;31;34463;-82
2022/08/18 02:35:10;;;;;;;9.45;6.25;;;;;;;23.89;57.82;98790.88;4488072;31;33411;-82
2022/08/18 02:37:40;;;;;;;16.60;7.25;;;;;;;23.48;59.01;98786.78;4499385;31;33513;-82
2022/08/18 02:40:11;;;;;;;9.70;6.00;;;;;;;23.32;59.32;98788.87;4502117;31;35299;-82
2022/08/18 02:42:43;;;;;;;11.48;6.22;;;;;;;23.31;59.58;98789.81;4500485;31;34320;-82
2022/08/18 02:45:12;;;;;;;13.98;7.30;;;;;;;23.17;59.46;98783.72;4497487;31;32672;-82
2022/08/18 02:47:41;;;;;;;9.55;6.43;;;;;;;23.06;60.07;98784.44;4493348;31;33806;-82
2022/08/18 02:50:12;;;;;;;10.80;6.43;;;;;;;23.19;60.28;98794.19;4501923;31;34899;-82
2022/08/18 02:52:40;;;;;;;11.07;6.90;;;;;;;23.42;58.76;98785.44;4499287;31;34199;-82
2022/08/18 02:55:08;;;;;;;9.07;6.30;;;;;;;22.58;61.65;98788.72;4499985;31;33444;-82
2022/08/18 02:57:44;;;;;;;11.27;5.90;;;;;;;23.04;60.39;98788.16;4501071;31;34841;-81
2022/08/18 03:00:14;;;;;;;11.23;7.13;;;;;;;22.80;60.90;98793.38;4500824;31;34997;-82
2022/08/18 03:02:50;;;;;;;8.57;6.35;;;;;;;23.34;58.86;98797.56;4496553;31;34449;-82
2022/08/18 03:05:18;;;;;;;11.38;6.80;;;;;;;23.06;59.38;98803.03;4500784;31;33390;-82
2022/08/18 03:07:47;;;;;;;9.68;6.68;;;;;;;23.02;60.58;98808.66;4500408;31;34746;-82
2022/08/18 03:10:15;;;;;;;8.95;5.87;;;;;;;23.01;59.97;98809.59;4500682;31;35082;-82
2022/08/18 03:13:01;;;;;;;10.27;6.28;;;;;;;22.32;62.29;98801.97;4499636;31;35110;-82
2022/08/18 03:15:29;;;;;;;13.52;6.95;;;;;;;22.23;62.61;98805.22;4500693;31;33749;-82
2022/08/18 03:17:57;;;;;;;11.93;6.72;;;;;;;22.49;62.10;98806.13;4500841;31;33928;-81
2022/08/18 03:20:25;;;;;;;11.50;6.37;;;;;;;22.61;61.34;98815.91;4500894;31;35367;-82
2022/08/18 03:22:58;;;;;;;12.77;7.05;;;;;;;22.39;62.15;98807.69;4500912;31;34517;-82
2022/08/18 03:25:32;;;;;;;11.05;6.72;;;;;;;21.90;63.87;98804.72;4499436;31;34353;-82
2022/08/18 03:28:02;;;;;;;13.65;7.62;;;;;;;22.06;63.19;98799.25;4489686;31;33784;-82
2022/08/18 03:30:30;;;;;;;17.98;7.30;;;;;;;21.89;64.44;98800.34;4486107;32;35152;-82
2022/08/18 03:32:58;;;;;;;11.80;7.47;;;;;;;21.91;64.25;98808.22;4494999;31;34569;-82
2022/08/18 03:35:26;;;;;;;9.32;6.10;;;;;;;21.53;64.94;98809.75;4501104;31;34270;-82
2022/08/18 03:37:58;;;;;;;10.23;6.95;;;;;;;21.00;66.88;98800.72;4500651;31;33753;-82
2022/08/18 03:40:26;;;;;;;17.55;8.00;;;;;;;21.67;64.00;98803.56;4500841;31;34930;-82
2022/08/18 03:42:54;;;;;;;11.95;6.80;;;;;;;21.75;65.51;98803.91;4500782;31;34437;-82
2022/08/18 03:45:23;;;;;;;11.15;7.00;;;;;;;21.46;65.77;98805.81;4501610;31;34272;-82
2022/08/18 03:47:52;;;;;;;9.93;6.62;;;;;;;21.90;64.58;98820.63;4496228;31;34061;-82
2022/08/18 03:50:20;;;;;;;9.82;6.60;;;;;;;21.62;65.22;98810.97;4500536;31;34970;-82
2022/08/18 03:52:48;;;;;;;10.70;6.97;;;;;;;21.59;65.23;98804.06;4498615;31;35189;-82
2022/08/18 03:55:17;;;;;;;12.63;7.70;;;;;;;21.44;65.96;98809.47;4501697;31;33586;-82
2022/08/18 03:57:45;;;;;;;12.20;7.95;;;;;;;21.78;65.01;98809.00;4499397;31;33842;-82
2022/08/18 04:00:13;;;;;;;10.00;6.45;;;;;;;21.34;66.51;98815.34;4500233;31;35789;-82
2022/08/18 04:02:41;;;;;;;11.55;6.75;;;;;;;21.55;65.95;98809.66;4500569;31;35323;-82
2022/08/18 04:05:11;;;;;;;10.20;6.95;;;;;;;21.19;67.01;98808.38;4499716;31;34421;-81
2022/08/18 04:07:41;;;;;;;10.23;6.68;;;;;;;21.58;65.79;98812.09;4495687;31;34816;-82
2022/08/18 04:10:11;;;;;;;10.70;6.37;;;;;;;21.72;65.34;98811.22;4501326;31;35022;-82
2022/08/18 04:12:46;;;;;;;13.85;6.93;;;;;;;21.58;66.11;98812.09;4493629;31;34286;-82
2022/08/18 04:15:15;;;;;;;9.15;6.72;;;;;;;21.42;67.82;98824.59;4484386;32;33089;-87
2022/08/18 04:17:45;;;;;;;11.63;7.45;;;;;;;21.66;66.93;98816.91;4491640;31;35102;-82
2022/08/18 04:20:32;;;;;;;21.62;7.53;;;;;;;21.74;67.09;98804.87;4499841;31;35892;-82
2022/08/18 04:23:36;;;;;;;14.30;7.22;;;;;;;22.17;64.88;98811.78;4488199;31;34274;-82
2022/08/18 04:26:12;;;;;;;11.05;7.65;;;;;;;21.27;68.84;98808.75;4495352;31;33647;-82
2022/08/18 04:28:45;;;;;;;13.18;8.07;;;;;;;21.59;69.13;98808.50;4496887;31;34729;-82
2022/08/18 04:31:14;;;;;;;12.77;7.75;;;;;;;21.97;68.32;98810.44;4500585;31;35089;-82
2022/08/18 04:33:43;;;;;;;14.93;7.95;;;;;;;21.79;67.94;98817.81;4497665;31;35175;-82
2022/08/18 04:36:13;;;;;;;13.98;7.72;;;;;;;22.24;67.47;98809.56;4495627;31;33684;-82
2022/08/18 04:38:48;;;;;;;15.25;7.28;;;;;;;22.88;65.51;98799.84;4497203;31;34095;-82
2022/08/18 04:41:16;;;;;;;10.85;7.43;;;;;;;23.48;63.63;98798.25;4488074;31;35821;-82
2022/08/18 04:43:48;;;;;;;11.77;8.25;;;;;;;23.28;64.58;98813.00;4499007;31;34511;-82
2022/08/18 04:46:18;;;;;;;15.35;7.12;;;;;;;23.27;65.24;98813.94;4494742;31;33714;-81
2022/08/18 04:48:57;;;;;;;11.35;7.50;;;;;;;23.37;65.45;98811.47;4497112;31;33779;-81
2022/08/18 04:51:28;;;;;;;13.65;7.68;;;;;;;23.56;64.20;98816.31;4485908;31;34610;-81
2022/08/18 04:54:16;;;;;;;11.05;7.45;;;;;;;23.95;62.86;98821.50;4499833;31;34420;-81
2022/08/18 04:56:44;;;;;;;10.05;6.78;;;;;;;24.12;62.01;98814.91;4499133;31;33770;-81
2022/08/18 04:59:13;;;;;;;11.27;7.72;;;;;;;24.37;61.00;98812.09;4499694;31;31730;-82
2022/08/18 05:01:44;;;;;;;11.90;7.10;;;;;;;24.38;61.61;98815.59;4485439;31;34924;-82
2022/08/18 05:04:15;;;;;;;12.75;7.00;;;;;;;24.57;60.79;98807.09;4483718;31;32790;-82
2022/08/18 05:06:44;;;;;;;11.05;7.15;;;;;;;24.93;59.17;98814.00;4490747;31;34038;-81
2022/08/18 05:09:13;;;;;;;16.12;8.10;;;;;;;25.33;58.10;98812.72;4499006;31;34650;-81
2022/08/18 05:11:49;;;;;;;11.55;6.82;;;;;;;25.37;57.69;98802.66;4499442;31;35085;-81
2022/08/18 05:14:18;;;;;;;12.10;6.93;;;;;;;25.77;56.46;98804.75;4492146;31;34301;-80
2022/08/18 05:16:47;;;;;;;12.95;7.25;;;;;;;25.65;56.63;98801.25;4499382;31;33583;-82
2022/08/18 05:19:21;;;;;;;11.98;6.90;;;;;;;26.04;56.34;98809.63;4496747;31;33644;-79
2022/08/18 05:21:54;;;;;;;13.80;7.00;;;;;;;26.37;55.12;98808.62;4490993;31;35817;-81
2022/08/18 05:24:28;;;;;;;11.43;7.60;;;;;;;26.10;54.84;98811.75;4498544;31;34456;-80
2022/08/18 05:27:06;;;;;;;12.37;6.85;;;;;;;26.43;54.10;98812.56;4497161;31;33269;-80
2022/08/18 05:29:35;;;;;;;14.23;6.87;;;;;;;26.94;53.13;98822.44;4500281;31;34891;-81
2022/08/18 05:32:13;;;;;;;10.77;7.20;;;;;;;27.40;51.63;98822.94;4492405;31;35026;-80
2022/08/18 05:35:11;;;;;;;11.23;6.87;;;;;;;27.17;51.48;98817.75;4500780;31;34347;-80
2022/08/18 05:38:02;;;;;;;9.85;6.62;;;;;;;27.27;51.78;98822.31;4492098;31;34429;-81
2022/08/18 05:40:30;;;;;;;10.32;6.72;;;;;;;27.40;51.08;98823.78;4462358;32;33305;-80
2022/08/18 05:42:59;;;;;;;15.15;6.80;;;;;;;27.99;50.07;98821.25;4499388;31;35312;-82
2022/08/18 05:45:27;;;;;;;10.57;7.30;;;;;;;27.99;50.18;98824.75;4501891;31;35238;-83
2022/08/18 05:47:58;;;;;;;14.48;7.28;;;;;;;28.16;48.99;98823.19;4501622;31;34476;-84
2022/08/18 05:50:28;;;;;;;12.90;6.80;;;;;;;28.31;49.77;98825.47;4498569;31;33790;-82
2022/08/18 05:53:00;;;;;;;14.05;6.65;;;;;;;28.26;48.74;98817.00;4501034;31;35942;-82
2022/08/18 05:58:31;;;;;;;10.63;7.03;;;;;;;28.91;46.95;98831.41;4491875;31;293470;-84
2022/08/18 06:01:07;;;;;;;9.30;6.05;;;;;;;29.01;47.04;98825.19;4501233;31;33932;-83
2022/08/18 06:03:46;;;;;;;13.32;6.85;;;;;;;29.64;45.87;98824.47;4501270;31;34599;-84
2022/08/18 06:06:19;;;;;;;9.45;6.25;;;;;;;29.86;45.08;98831.25;4488281;31;33675;-81
2022/08/18 06:09:09;;;;;;;10.85;6.40;;;;;;;29.79;44.41;98841.78;4499663;31;33455;-82
2022/08/18 06:11:37;;;;;;;9.85;6.32;;;;;;;29.98;44.20;98831.88;4493884;31;33953;-81
2022/08/18 06:14:05;;;;;;;11.25;6.43;;;;;;;29.46;44.66;98840.53;4496622;31;35065;-84
2022/08/18 06:17:02;;;;;;;10.50;6.93;;;;;;;30.18;43.42;98833.41;4500781;31;34570;-81
2022/08/18 06:19:36;;;;;;;8.50;6.22;;;;;;;29.95;43.55;98838.41;4501435;31;33422;-81
2022/08/18 06:22:19;;;;;;;8.55;5.95;;;;;;;30.01;43.53;98839.62;4502198;31;33808;-82
2022/08/18 06:25:15;;;;;;;11.00;6.57;;;;;;;30.55;41.93;98836.91;4486321;32;35039;-83
2022/08/18 06:27:50;;;;;;;8.15;5.93;;;;;;;30.66;41.76;98834.00;4453469;31;34424;-84
2022/08/18 06:30:22;;;;;;;7.37;5.45;;;;;;;31.00;40.69;98841.28;4501362;31;33555;-82
2022/08/18 06:33:33;;;;;;;10.20;5.95;;;;;;;30.92;41.06;98838.50;4499389;31;33911;-83
2022/08/18 06:36:07;;;;;;;8.98;5.93;;;;;;;31.18;40.48;98844.75;4500900;31;34923;-82
2022/08/18 06:38:44;;;;;;;11.40;5.90;;;;;;;30.98;40.53;98835.22;4501335;31;34395;-83
2022/08/18 06:41:33;;;;;;;15.93;6.33;;;;;;;31.62;39.16;98834.84;4502173;31;33235;-82
2022/08/18 06:44:35;;;;;;;9.23;5.85;;;;;;;31.49;39.54;98841.53;4501238;31;34648;-84
2022/08/18 06:47:08;;;;;;;9.20;5.90;;;;;;;31.33;39.95;98836.91;4501087;31;35035;-83
2022/08/18 06:50:01;;;;;;;8.85;6.03;;;;;;;32.05;38.68;98835.59;4501116;31;35214;-85
2022/08/18 06:52:34;;;;;;;9.50;6.12;;;;;;;31.72;39.56;98841.75;4487199;31;33531;-82
2022/08/18 06:55:07;;;;;;;9.18;6.20;;;;;;;32.20;38.37;98825.88;4498036;31;33991;-82
2022/08/18 06:57:38;;;;;;;8.00;6.45;;;;;;;32.12;38.59;98826.72;4491604;31;35137;-81
2022/08/18 07:00:22;;;;;;;12.07;6.32;;;;;;;32.39;37.65;98834.63;4499590;31;34307;-83
2022/08/18 07:03:34;;;;;;;10.57;5.82;;;;;;;32.24;38.10;98821.81;4496015;31;34188;-81
2022/08/18 07:06:20;;;;;;;10.52;7.03;;;;;;;32.24;38.27;98815.59;4491596;31;33908;-82
2022/08/18 07:08:53;;;;;;;17.20;6.30;;;;;;;32.24;38.77;98815.59;4501830;31;35055;-83
2022/08/18 07:11:32;;;;;;;8.70;5.97;;;;;;;31.86;39.24;98817.91;4489592;31;34359;-81
2022/08/18 07:14:20;;;;;;;8.50;5.28;;;;;;;31.70;39.30;98821.41;4488871;31;33423;-81
2022/08/18 07:16:49;;;;;;;10.35;5.97;;;;;;;32.84;37.51;98820.63;4500660;31;33991;-84
2022/08/18 07:19:31;;;;;;;11.43;6.28;;;;;;;32.37;38.08;98813.25;4495394;31;35040;-83
2022/08/18 07:22:17;;;;;;;9.27;5.82;;;;;;;32.64;37.63;98820.13;4500662;31;34079;-83
2022/08/18 07:24:53;;;;;;;7.68;5.65;;;;;;;32.44;38.41;98819.63;4501026;31;34392;-83
2022/08/18 07:27:28;;;;;;;9.73;5.97;;;;;;;32.60;38.24;98818.81;4491317;31;34048;-81
2022/08/18 07:30:02;;;;;;;9.13;5.72;;;;;;;32.48;37.95;98815.56;4499503;31;36013;-82
2022/08/18 07:32:44;;;;;;;10.93;5.90;;;;;;;33.44;36.21;98805.75;4500520;31;35241;-82
2022/08/18 07:35:27;;;;;;;9.38;5.93;;;;;;;33.26;36.10;98818.63;4484904;32;33635;-83
2022/08/18 07:38:27;;;;;;;9.48;5.25;;;;;;;32.67;37.27;98813.56;4485736;31;33790;-80
2022/08/18 07:41:24;;;;;;;8.10;5.53;;;;;;;33.76;34.76;98817.41;4487868;31;34968;-81
2022/08/18 07:44:02;;;;;;;9.38;5.35;;;;;;;33.62;34.47;98816.28;4498996;31;34529;-82
2022/08/18 07:46:44;;;;;;;9.68;5.12;;;;;;;34.18;33.46;98813.41;4501907;31;34176;-82
2022/08/18 07:49:23;;;;;;;8.52;5.53;;;;;;;34.21;33.84;98819.47;4500775;31;34222;-83
2022/08/18 07:52:00;;;;;;;10.13;5.75;;;;;;;34.44;33.17;98832.97;4499064;31;35081;-82
2022/08/18 07:54:49;;;;;;;9.05;4.75;;;;;;;34.78;33.01;98834.34;4498825;31;35152;-83
2022/08/18 07:57:26;;;;;;;8.85;5.22;;;;;;;34.49;32.55;98836.78;4496909;31;33397;-86
2022/08/18 08:00:11;;;;;;;7.60;5.70;;;;;;;34.46;32.45;98850.66;4493570;31;33828;-81
2022/08/18 08:03:03;;;;;;;7.70;5.35;;;;;;;35.01;31.48;98840.50;4499687;31;35745;-81
2022/08/18 08:05:59;;;;;;;;;;;;;;;35.92;30.42;98845.66;4494607;31;34548;-81
2022/08/18 08:09:15;;;;;;;12.35;7.28;;;;;;;35.61;31.37;98856.72;4501203;31;32551;-80
2022/08/18 08:12:01;;;;;;;9.65;6.22;;;;;;;35.91;31.00;98864.81;4501137;31;34741;-81
2022/08/18 08:14:50;;;;;;;6.87;5.10;;;;;;;36.22;31.17;98869.97;4500955;31;34872;-81
2022/08/18 08:17:35;;;;;;;8.32;5.15;;;;;;;36.81;28.58;98874.25;4500273;31;35204;-81
2022/08/18 08:20:23;;;;;;;11.82;5.68;;;;;;;35.84;30.26;98872.87;4484492;31;33019;-81
2022/08/18 08:23:09;;;;;;;7.85;5.07;;;;;;;36.11;30.27;98878.56;4484102;32;34651;-81
2022/08/18 08:26:14;;;;;;;6.93;4.80;;;;;;;36.42;29.16;98881.00;4494062;31;35174;-81
2022/08/18 08:28:58;;;;;;;7.93;5.05;;;;;;;36.46;28.60;98866.00;4494683;31;34571;-82
2022/08/18 08:32:07;;;;;;;7.80;5.25;;;;;;;37.44;27.77;98868.78;4485113;32;32436;-82
2022/08/18 08:35:14;;;;;;;8.45;5.10;;;;;;;36.99;28.05;98860.16;4483456;31;32697;-80
2022/08/18 08:38:11;;;;;;;7.87;5.43;;;;;;;36.80;28.43;98865.28;4485517;31;35067;-82
2022/08/18 08:41:10;;;;;;;6.55;4.43;;;;;;;36.88;28.68;98852.59;4500063;31;34553;-83
2022/08/18 08:43:46;;;;;;;8.43;5.22;;;;;;;36.99;28.48;98849.31;4500214;31;33413;-87
2022/08/18 08:46:24;;;;;;;11.55;5.35;;;;;;;37.83;27.90;98840.13;4497360;31;34640;-85
2022/08/18 08:48:59;;;;;;;7.50;4.90;;;;;;;37.22;27.57;98848.22;4490156;31;35147;-86
2022/08/18 08:51:34;;;;;;;6.85;4.53;;;;;;;37.73;27.06;98853.25;4500557;31;35403;-82
2022/08/18 08:54:15;;;;;;;6.82;4.75;;;;;;;36.97;28.43;98838.66;4498694;31;34162;-84
2022/08/18 08:56:49;;;;;;;6.90;5.18;;;;;;;37.69;27.11;98836.53;4501583;31;33969;-87
2022/08/18 08:59:20;;;;;;;9.32;4.55;;;;;;;37.63;27.31;98839.19;4500152;31;35951;-82
2022/08/18 09:01:57;;;;;;;9.27;4.75;;;;;;;37.23;27.90;98844.47;4501649;31;33756;-82
2022/08/18 09:04:44;;;;;;;6.85;4.57;;;;;;;38.12;26.29;98838.09;4501615;31;33015;-81
2022/08/18 09:08:01;;;;;;;7.00;4.82;;;;;;;37.41;27.14;98831.16;4502573;31;33820;-81
2022/08/18 09:10:38;;;;;;;8.18;4.30;;;;;;;37.70;26.56;98845.53;4490432;31;34258;-81
2022/08/18 09:13:24;;;;;;;7.37;5.10;;;;;;;37.51;26.63;98837.06;4499988;31;34425;-80
2022/08/18 09:16:14;;;;;;;7.32;4.50;;;;;;;37.50;26.60;98835.37;4486769;32;33472;-83
2022/08/18 09:18:53;;;;;;;6.93;4.93;;;;;;;37.77;26.25;98832.81;4489800;31;34746;-83
2022/08/18 09:21:39;;;;;;;10.02;4.68;;;;;;;37.59;27.01;98832.50;4485352;32;35950;-81
2022/08/18 09:24:26;;;;;;;9.82;4.70;;;;;;;37.79;25.52;98833.44;4491040;31;34464;-82
2022/08/18 09:27:03;;;;;;;8.15;5.22;;;;;;;37.51;26.10;98831.62;4500348;31;34383;-82
2022/08/18 09:29:37;;;;;;;7.05;5.00;;;;;;;37.77;26.95;98834.66;4498820;31;34622;-81
2022/08/18 09:32:19;;;;;;;6.25;4.32;;;;;;;38.55;25.48;98826.81;4502361;31;35027;-84
2022/08/18 09:35:27;;;;;;;9.55;5.87;;;;;;;38.80;24.46;98824.31;4499584;31;33754;-83
2022/08/18 09:41:32;;;;;;;9.18;4.70;;;;;;;38.97;24.10;98816.53;4501356;31;32723;-83
2022/08/18 09:44:13;;;;;;;6.68;3.92;;;;;;;39.02;23.72;98811.31;4486931;31;35914;-81
2022/08/18 09:47:03;;;;;;;13.10;4.15;;;;;;;38.91;23.28;98795.59;4490325;31;33983;-80
2022/08/18 09:49:45;;;;;;;7.55;5.80;;;;;;;38.58;23.69;98792.94;4502048;31;33514;-80
2022/08/18 09:52:37;;;;;;;6.32;4.10;;;;;;;38.28;24.89;98786.03;4490076;31;33694;-82
2022/08/18 09:55:19;;;;;;;;;;;;;;;38.91;23.76;98776.53;4501356;31;35189;-82
2022/08/18 09:58:27;;;;;;;5.47;3.90;;;;;;;39.62;24.24;98775.66;4502440;31;34304;-82
2022/08/18 10:01:33;;;;;;;7.30;4.07;;;;;;;39.28;23.84;98776.84;4493201;31;33401;-82
2022/08/18 10:04:19;;;;;;;5.40;3.72;;;;;;;39.64;22.82;98764.53;4483554;31;33916;-82
2022/08/18 10:06:50;;;;;;;6.65;3.90;;;;;;;40.21;22.09;98752.81;4485486;32;34677;-87
2022/08/18 10:09:42;;;;;;;6.20;4.40;;;;;;;39.96;21.77;98761.84;4485199;32;35077;-87
2022/08/18 10:13:14;;;;;;;5.12;3.67;;;;;;;39.28;22.71;98765.94;4486310;32;34187;-86
2022/08/18 10:16:13;;;;;;;7.65;4.28;;;;;;;40.15;22.57;98759.97;4485049;32;33494;-85
2022/08/18 10:18:55;;;;;;;8.65;4.32;;;;;;;40.71;22.81;98763.69;4486616;31;35012;-86
2022/08/18 10:21:56;;;;;;;9.93;4.68;;;;;;;39.78;22.33;98768.84;4484953;32;34384;-86
2022/08/18 10:24:28;;;;;;;;;;;;;;;39.39;22.87;98778.91;4486639;32;34379;-86
2022/08/18 10:27:26;;;;;;;6.87;4.43;;;;;;;39.64;22.77;98764.53;4486352;32;34044;-85
2022/08/18 10:29:56;;;;;;;5.97;4.12;;;;;;;39.48;22.94;98771.34;4486251;32;35143;-87
2022/08/18 10:32:39;;;;;;;6.32;3.95;;;;;;;39.37;23.03;98759.19;4483551;31;35148;-86
2022/08/18 10:35:54;;;;;;;6.43;4.37;;;;;;;39.60;23.42;98757.84;4485413;31;33474;-88
2022/08/18 10:38:40;;;;;;;6.25;3.85;;;;;;;40.15;22.55;98751.81;4483024;31;33929;-86
2022/08/18 10:41:33;;;;;;;9.68;4.22;;;;;;;40.21;21.38;98752.81;4472736;32;33548;-86
2022/08/18 10:44:02;;;;;;;7.25;3.45;;;;;;;39.97;21.24;98760.75;4484934;32;34389;-86
2022/08/18 10:46:52;;;;;;;5.97;3.75;;;;;;;39.34;22.72;98764.25;4484944;32;34312;-86
2022/08/18 10:49:26;;;;;;;5.87;3.95;;;;;;;39.90;22.26;98757.22;4484946;32;33140;-85
2022/08/18 10:52:22;;;;;;;5.20;3.80;;;;;;;40.70;21.35;98751.09;4485239;31;35219;-86
2022/08/18 10:55:10;;;;;;;6.28;3.25;;;;;;;40.31;21.03;98739.47;4484728;32;32903;-86
2022/08/18 10:58:18;;;;;;;5.87;3.50;;;;;;;39.78;21.36;98754.38;4484675;32;34212;-84
2022/08/18 11:01:20;;;;;;;5.10;3.62;;;;;;;39.61;22.30;98743.19;4486330;32;33912;-86
2022/08/18 11:04:03;;;;;;;5.65;3.83;;;;;;;40.33;21.32;98751.03;4492067;31;34312;-87
2022/08/18 11:06:55;;;;;;;4.90;3.85;;;;;;;40.52;21.17;98752.75;4501899;31;34435;-86
2022/08/18 11:09:56;;;;;;;5.03;3.60;;;;;;;40.11;21.88;98745.97;4486174;31;33975;-85
2022/08/18 11:13:07;;;;;;;5.05;3.30;;;;;;;40.87;21.44;98743.97;4483996;32;34059;-85
2022/08/18 11:15:48;;;;;;;10.13;3.65;;;;;;;39.70;21.38;98741.84;4493932;31;34716;-86
2022/08/18 11:18:34;;;;;;;5.85;3.10;;;;;;;39.58;21.74;98736.25;4495360;31;32881;-83
2022/08/18 11:21:26;;;;;;;4.00;2.55;;;;;;;39.40;22.07;98739.69;4498591;31;34055;-82
2022/08/18 11:24:11;;;;;;;5.10;3.28;;;;;;;39.64;21.29;98737.28;4498466;31;34023;-81
2022/08/18 11:26:44;;;;;;;4.70;3.37;;;;;;;40.35;21.06;98729.81;4486011;32;35886;-85
2022/08/18 11:29:22;;;;;;;6.18;3.25;;;;;;;40.85;20.76;98743.37;4488915;31;34334;-84
2022/08/18 11:32:15;;;;;;;5.53;4.07;;;;;;;40.33;20.65;98721.03;4492576;31;32591;-84
2022/08/18 11:35:02;;;;;;;4.87;3.47;;;;;;;39.52;21.81;98722.69;4494865;31;33722;-85
2022/08/18 11:37:37;;;;;;;7.05;4.00;;;;;;;40.78;20.66;98715.28;4500507;31;34939;-84
2022/08/18 11:40:37;;;;;;;5.47;3.60;;;;;;;40.39;20.78;98709.22;4488602;31;33345;-84
2022/08/18 11:43:28;;;;;;;8.63;3.63;;;;;;;40.47;20.97;98692.56;4501362;31;33432;-83
2022/08/18 11:46:24;;;;;;;6.28;3.60;;;;;;;40.53;21.54;98697.09;4499860;31;34088;-83
2022/08/18 11:48:58;;;;;;;7.57;3.65;;;;;;;39.59;21.79;98688.06;4496500;31;36001;-81
2022/08/18 11:51:30;;;;;;;5.60;3.37;;;;;;;39.54;21.33;98691.44;4498799;31;34553;-82
2022/08/18 11:54:20;;;;;;;6.03;3.83;;;;;;;38.98;22.08;98694.84;4499819;31;33334;-83
2022/08/18 11:56:51;;;;;;;5.28;3.70;;;;;;;39.17;22.19;98693.13;4499885;31;34639;-84
2022/08/18 11:59:27;;;;;;;7.62;3.95;;;;;;;39.19;22.22;98685.56;4498641;31;34882;-84
2022/08/18 12:02:17;;;;;;;4.75;3.08;;;;;;;39.56;22.22;98683.88;4497358;31;34308;-84
2022/08/18 12:04:51;;;;;;;6.18;3.60;;;;;;;39.78;20.84;98687.06;4497613;31;34241;-87
2022/08/18 12:07:32;;;;;;;5.82;3.35;;;;;;;39.68;21.65;98664.94;4493317;31;34618;-83
2022/08/18 12:10:19;;;;;;;7.53;3.83;;;;;;;39.30;22.45;98676.69;4484389;32;35097;-83
2022/08/18 12:13:07;;;;;;;5.47;2.87;;;;;;;38.84;21.66;98666.84;4498060;31;33995;-83
2022/08/18 12:15:37;;;;;;;6.25;3.55;;;;;;;38.40;22.90;98660.28;4500960;31;33539;-82
2022/08/18 12:18:25;;;;;;;6.85;3.60;;;;;;;39.20;21.47;98654.56;4499584;31;34827;-86
2022/08/18 12:21:14;;;;;;;8.50;3.37;;;;;;;39.24;22.10;98651.16;4497780;31;35921;-82
2022/08/18 12:23:42;;;;;;;6.57;3.08;;;;;;;39.27;21.85;98644.47;4497659;31;34609;-83
2022/08/18 12:26:19;;;;;;;4.68;3.20;;;;;;;39.52;21.07;98639.06;4496721;31;34376;-83
2022/08/18 12:29:05;;;;;;;7.12;2.90;;;;;;;39.28;21.51;98635.22;4496975;31;34837;-82
2022/08/18 12:31:38;;;;;;;7.05;3.95;;;;;;;39.46;20.41;98630.91;4498613;31;35125;-83
2022/08/18 12:34:22;;;;;;;4.90;3.45;;;;;;;39.36;21.15;98629.50;4498526;31;34407;-82
2022/08/18 12:37:15;;;;;;;4.43;3.15;;;;;;;39.42;21.03;98631.34;4498031;31;33645;-83